Time;durP1;ratioP1;P1;durP2;ratioP2;P2;SDS_P1;SDS_P2;PMS_P1;PMS_P2;Temp;Humidity;BMP_temperature;BMP_pressure;BME280_temperature;BME280_humidity;BME280_pressure;Samples;Min_cycle;Max_cycle;Signal;HPM_P1;HPM_P2
2022/03/29 00:00:59;;;;;;;20.57;10.40;;;;;;;8.68;33.14;98653.13;1753131;81;20894;-76
2022/03/29 00:03:27;;;;;;;22.17;10.43;;;;;;;8.66;33.24;98655.42;1749998;81;20911;-74
2022/03/29 00:05:56;;;;;;;19.62;10.08;;;;;;;8.64;33.11;98654.94;1750752;81;21010;-73
2022/03/29 00:08:22;;;;;;;21.82;10.58;;;;;;;8.63;33.29;98647.86;1750431;81;21002;-72
2022/03/29 00:10:49;;;;;;;20.27;10.08;;;;;;;8.62;33.17;98647.05;1741430;81;21911;-72
2022/03/29 00:13:18;;;;;;;23.22;10.63;;;;;;;8.57;33.40;98646.66;1747680;81;21056;-71
2022/03/29 00:16:41;;;;;;;26.50;10.95;;;;;;;8.53;33.36;98647.06;1751876;81;21501;-71
2022/03/29 00:19:08;;;;;;;26.12;11.18;;;;;;;8.53;33.44;98640.23;1751508;81;20946;-70
2022/03/29 00:21:35;;;;;;;19.62;10.00;;;;;;;8.51;33.44;98634.27;1724739;81;21270;-73
2022/03/29 00:24:04;;;;;;;18.40;10.40;;;;;;;8.51;33.27;98636.20;1750121;81;21149;-77
2022/03/29 00:26:31;;;;;;;22.42;10.53;;;;;;;8.50;33.46;98631.30;1750534;81;21062;-77
2022/03/29 00:28:59;;;;;;;27.25;10.90;;;;;;;8.48;33.30;98630.02;1750878;81;20934;-72
2022/03/29 00:31:26;;;;;;;23.98;11.45;;;;;;;8.49;33.49;98627.52;1751882;81;21473;-73
2022/03/29 00:33:53;;;;;;;22.52;11.03;;;;;;;8.48;33.24;98621.25;1755253;81;21109;-72
2022/03/29 00:36:19;;;;;;;20.57;10.85;;;;;;;8.50;33.19;98625.83;1747739;81;21097;-72
2022/03/29 00:38:47;;;;;;;23.62;11.12;;;;;;;8.52;33.25;98621.41;1754655;81;20915;-71
2022/03/29 00:41:14;;;;;;;20.27;11.15;;;;;;;8.52;33.49;98615.93;1752590;81;20978;-72
2022/03/29 00:43:45;;;;;;;27.25;12.20;;;;;;;8.47;33.39;98619.64;1745605;81;21600;-71
2022/03/29 00:46:13;;;;;;;24.07;11.50;;;;;;;8.45;33.41;98614.25;1745749;81;20923;-72
2022/03/29 00:48:40;;;;;;;23.27;11.60;;;;;;;8.45;33.48;98614.25;1748038;81;21131;-72
2022/03/29 00:51:08;;;;;;;26.02;12.65;;;;;;;8.43;33.36;98609.11;1751191;81;21634;-71
2022/03/29 00:53:35;;;;;;;18.57;10.85;;;;;;;8.44;33.46;98603.88;1750601;81;21002;-71
2022/03/29 00:56:03;;;;;;;25.90;12.37;;;;;;;8.41;33.69;98594.95;1748700;81;21694;-71
2022/03/29 00:58:34;;;;;;;20.77;10.72;;;;;;;8.36;33.74;98597.85;1745161;81;20871;-72
2022/03/29 01:01:03;;;;;;;22.50;11.63;;;;;;;8.30;33.90;98595.02;1755772;81;20959;-72
2022/03/29 01:03:30;;;;;;;22.17;11.60;;;;;;;8.24;33.99;98595.74;1747196;81;21565;-71
2022/03/29 01:06:01;;;;;;;21.15;10.90;;;;;;;8.22;33.97;98593.09;1750884;81;21128;-71
2022/03/29 01:08:28;;;;;;;22.75;11.08;;;;;;;8.20;34.11;98593.41;1746101;81;20872;-72
2022/03/29 01:10:56;;;;;;;22.70;11.22;;;;;;;8.18;34.19;98592.93;1744651;81;21545;-72
2022/03/29 01:13:23;;;;;;;25.57;11.93;;;;;;;8.15;34.38;98594.14;1749507;81;21169;-72
2022/03/29 01:15:50;;;;;;;25.72;10.90;;;;;;;8.09;34.40;98595.42;1749574;81;21041;-73
2022/03/29 01:18:20;;;;;;;24.35;11.40;;;;;;;8.06;34.55;98590.64;1741104;81;20970;-73
2022/03/29 01:20:50;;;;;;;22.50;10.53;;;;;;;8.00;34.56;98589.99;1718629;82;20934;-73
2022/03/29 01:23:20;;;;;;;22.52;12.03;;;;;;;7.95;34.69;98585.48;1747006;81;20993;-73
2022/03/29 01:25:46;;;;;;;20.15;11.33;;;;;;;7.93;34.66;98582.84;1751005;81;21173;-74
2022/03/29 01:28:14;;;;;;;23.60;11.78;;;;;;;7.91;34.76;98579.06;1744480;81;20959;-71
2022/03/29 01:30:41;;;;;;;24.52;11.55;;;;;;;7.90;34.91;98584.28;1745050;81;21089;-70
2022/03/29 01:33:09;;;;;;;21.80;10.80;;;;;;;7.86;34.98;98571.58;1752788;81;21497;-70
2022/03/29 01:35:36;;;;;;;21.45;10.82;;;;;;;7.83;34.98;98572.22;1750829;81;20989;-74
2022/03/29 01:38:03;;;;;;;23.80;11.65;;;;;;;7.82;35.00;98572.78;1753315;81;21915;-75
2022/03/29 01:40:30;;;;;;;23.65;10.43;;;;;;;7.80;35.19;98568.77;1723850;82;20864;-74
2022/03/29 01:42:59;;;;;;;24.52;11.18;;;;;;;7.75;35.24;98568.36;1745176;81;21609;-71
2022/03/29 01:45:31;;;;;;;21.27;10.95;;;;;;;7.71;35.35;98568.77;1750110;81;21172;-72
2022/03/29 01:47:59;;;;;;;22.02;9.80;;;;;;;7.69;35.27;98560.08;1751223;81;20982;-71
2022/03/29 01:50:26;;;;;;;20.68;10.53;;;;;;;7.67;35.37;98563.70;1717712;81;21904;-72
2022/03/29 01:52:54;;;;;;;21.90;10.20;;;;;;;7.64;35.46;98556.14;1749742;81;20951;-73
2022/03/29 01:55:21;;;;;;;21.68;10.20;;;;;;;7.63;35.58;98556.70;1751715;81;20998;-74
2022/03/29 01:57:49;;;;;;;19.00;9.15;;;;;;;7.62;35.54;98557.83;1748266;81;20962;-74
2022/03/29 02:00:39;;;;;;;22.80;9.43;;;;;;;7.60;35.73;98563.37;1744917;81;21123;-74
2022/03/29 02:03:06;;;;;;;23.27;9.95;;;;;;;7.58;35.67;98557.42;1749951;81;21489;-74
2022/03/29 02:05:33;;;;;;;24.27;10.38;;;;;;;7.57;35.86;98550.34;1747200;81;20982;-73
2022/03/29 02:08:01;;;;;;;19.20;9.78;;;;;;;7.56;35.81;98559.67;1749835;80;20970;-73
2022/03/29 02:10:29;;;;;;;20.55;9.95;;;;;;;7.53;35.96;98551.55;1750963;81;20995;-70
2022/03/29 02:12:56;;;;;;;24.02;10.95;;;;;;;7.50;36.06;98544.02;1742896;81;20971;-77
2022/03/29 02:15:25;;;;;;;19.92;9.43;;;;;;;7.49;36.06;98548.44;1750152;81;20887;-76
2022/03/29 02:17:53;;;;;;;19.90;9.90;;;;;;;7.49;36.11;98542.42;1752728;80;20954;-77
2022/03/29 02:20:22;;;;;;;20.88;10.88;;;;;;;7.50;36.25;98537.76;1714013;83;21480;-77
2022/03/29 02:22:49;;;;;;;15.83;9.05;;;;;;;7.48;36.22;98538.08;1676349;84;20991;-73
2022/03/29 02:25:16;;;;;;;21.60;9.85;;;;;;;7.46;36.31;98538.16;1741978;81;21078;-74
2022/03/29 02:27:45;;;;;;;24.12;9.70;;;;;;;7.43;36.48;98534.14;1711558;81;21552;-70
2022/03/29 02:30:16;;;;;;;21.17;10.08;;;;;;;7.41;36.38;98528.75;1741298;82;21057;-71
2022/03/29 02:32:45;;;;;;;19.85;9.30;;;;;;;7.40;36.52;98539.43;1743037;81;20986;-70
2022/03/29 02:35:13;;;;;;;18.90;9.03;;;;;;;7.38;36.55;98522.00;1741319;82;21490;-70
2022/03/29 02:37:42;;;;;;;19.40;9.45;;;;;;;7.41;36.61;98518.63;1743102;81;21691;-69
2022/03/29 02:40:13;;;;;;;18.82;8.40;;;;;;;7.41;36.74;98513.17;1741550;82;21206;-70
2022/03/29 02:42:55;;;;;;;18.80;8.85;;;;;;;7.41;36.84;98517.83;1733898;81;20880;-69
2022/03/29 02:45:24;;;;;;;23.20;9.83;;;;;;;7.36;37.03;98517.98;1743502;81;20911;-70
2022/03/29 02:47:53;;;;;;;23.77;9.58;;;;;;;7.29;37.10;98521.98;1739048;81;21652;-70
2022/03/29 02:50:21;;;;;;;20.43;9.75;;;;;;;7.25;37.31;98514.20;1738337;82;21228;-69
2022/03/29 02:52:50;;;;;;;28.07;8.23;;;;;;;7.21;37.31;98515.95;1739582;82;21136;-72
2022/03/29 02:55:21;;;;;;;17.30;8.83;;;;;;;7.17;37.51;98514.17;1715688;82;21744;-73
2022/03/29 02:57:47;;;;;;;20.10;8.68;;;;;;;7.12;37.62;98521.95;1747418;81;20948;-73
2022/03/29 03:00:16;;;;;;;20.82;9.13;;;;;;;7.09;37.94;98523.95;1744586;81;21454;-72
2022/03/29 03:02:48;;;;;;;21.82;9.08;;;;;;;7.03;37.92;98521.13;1754214;81;21536;-73
2022/03/29 03:05:16;;;;;;;18.02;8.65;;;;;;;7.03;38.28;98520.32;1747774;81;21107;-75
2022/03/29 03:07:44;;;;;;;21.42;10.25;;;;;;;7.00;38.26;98518.23;1752942;81;21558;-74
2022/03/29 03:10:12;;;;;;;20.43;9.25;;;;;;;6.98;38.36;98514.45;1744850;81;20903;-74
2022/03/29 03:12:44;;;;;;;22.73;9.43;;;;;;;6.96;38.57;98512.03;1752767;81;20998;-74
2022/03/29 03:15:15;;;;;;;18.40;8.58;;;;;;;6.95;38.59;98516.45;1740927;81;21172;-75
2022/03/29 03:17:42;;;;;;;25.48;9.48;;;;;;;6.92;38.77;98513.82;1750485;81;21870;-71
2022/03/29 03:20:11;;;;;;;19.30;9.25;;;;;;;6.92;38.86;98515.74;1752853;81;21036;-70
2022/03/29 03:22:38;;;;;;;32.40;9.20;;;;;;;6.89;39.26;98521.27;1750276;81;21541;-73
2022/03/29 03:25:06;;;;;;;19.12;8.70;;;;;;;6.85;39.18;98516.20;1747641;81;21420;-73
2022/03/29 03:27:38;;;;;;;25.60;9.25;;;;;;;6.83;39.38;98517.64;1750985;81;21687;-72
2022/03/29 03:30:09;;;;;;;22.85;9.30;;;;;;;6.83;39.54;98516.27;1754262;81;21227;-69
2022/03/29 03:32:36;;;;;;;20.10;9.63;;;;;;;6.84;39.79;98512.43;1718021;81;21011;-71
2022/03/29 03:35:04;;;;;;;19.55;9.18;;;;;;;6.81;39.80;98511.70;1752617;81;20892;-71
2022/03/29 03:37:33;;;;;;;23.85;9.90;;;;;;;6.81;40.13;98503.52;1741931;81;21038;-73
2022/03/29 03:40:03;;;;;;;23.27;8.13;;;;;;;6.78;40.19;98509.59;1734283;81;21014;-73
2022/03/29 03:42:30;;;;;;;21.60;8.65;;;;;;;6.79;40.40;98519.39;1733732;81;21127;-72
2022/03/29 03:44:58;;;;;;;25.50;9.35;;;;;;;6.79;40.42;98513.38;1731614;81;21089;-71
2022/03/29 03:47:26;;;;;;;19.27;8.58;;;;;;;6.76;40.50;98512.64;1738660;81;21497;-69
2022/03/29 03:49:53;;;;;;;17.25;8.55;;;;;;;6.78;40.61;98508.23;1733748;80;20962;-70
2022/03/29 03:52:19;;;;;;;23.05;9.38;;;;;;;6.78;40.87;98510.40;1725936;81;21018;-72
2022/03/29 03:54:46;;;;;;;19.67;9.03;;;;;;;6.76;40.77;98524.11;1728467;81;21129;-72
2022/03/29 03:57:15;;;;;;;23.73;11.25;;;;;;;6.75;40.99;98515.68;1736868;81;20953;-72
2022/03/29 03:59:44;;;;;;;19.07;9.45;;;;;;;6.72;41.06;98516.31;1733585;81;21060;-72
2022/03/29 04:02:12;;;;;;;24.15;8.73;;;;;;;6.72;41.24;98523.13;1741471;81;20990;-72
2022/03/29 04:04:39;;;;;;;21.80;8.55;;;;;;;6.71;41.35;98531.88;1738169;81;20995;-72
2022/03/29 04:07:08;;;;;;;19.45;8.58;;;;;;;6.70;41.52;98522.64;1729880;81;21241;-73
2022/03/29 04:09:38;;;;;;;17.73;8.95;;;;;;;6.68;41.50;98529.77;1733431;81;20883;-72
2022/03/29 04:12:07;;;;;;;26.35;9.53;;;;;;;6.67;41.61;98527.36;1730505;81;20999;-73
2022/03/29 04:14:34;;;;;;;20.68;9.10;;;;;;;6.66;41.92;98529.28;1724262;81;21006;-73
2022/03/29 04:17:01;;;;;;;17.45;8.18;;;;;;;6.69;41.88;98531.94;1738883;81;20863;-73
2022/03/29 04:19:28;;;;;;;18.80;9.55;;;;;;;6.70;41.84;98534.91;1727957;81;22035;-73
2022/03/29 04:21:55;;;;;;;21.57;8.90;;;;;;;6.71;41.99;98525.61;1725516;81;21109;-72
2022/03/29 04:24:22;;;;;;;25.62;10.18;;;;;;;6.72;42.27;98535.41;1738215;81;21010;-74
2022/03/29 04:26:51;;;;;;;19.07;9.23;;;;;;;6.75;42.31;98535.58;1750687;81;20923;-73
2022/03/29 04:29:19;;;;;;;25.77;9.08;;;;;;;6.80;42.36;98538.73;1748422;81;21552;-73
2022/03/29 04:31:47;;;;;;;18.75;9.50;;;;;;;6.86;42.25;98533.38;1753799;80;21571;-73
2022/03/29 04:34:13;;;;;;;19.67;9.63;;;;;;;6.91;42.09;98535.96;1756484;81;21336;-73
2022/03/29 04:36:41;;;;;;;27.98;8.88;;;;;;;6.99;42.22;98535.16;1747799;81;20994;-74
2022/03/29 04:39:08;;;;;;;20.75;9.08;;;;;;;7.06;42.12;98531.41;1747448;81;21498;-73
2022/03/29 04:41:36;;;;;;;18.25;9.33;;;;;;;7.10;42.10;98524.75;1751982;81;21486;-73
2022/03/29 04:44:04;;;;;;;16.70;9.15;;;;;;;7.16;42.02;98528.38;1748144;81;21223;-72
2022/03/29 04:46:33;;;;;;;20.65;9.48;;;;;;;7.20;42.00;98514.34;1746659;81;21132;-74
2022/03/29 04:48:59;;;;;;;24.05;8.85;;;;;;;7.26;42.04;98521.27;1747818;81;20979;-72
2022/03/29 04:51:26;;;;;;;22.37;10.43;;;;;;;7.33;42.06;98513.16;1751233;81;20958;-76
2022/03/29 04:53:53;;;;;;;28.87;10.38;;;;;;;7.38;42.15;98526.09;1712420;83;21006;-73
2022/03/29 04:56:21;;;;;;;33.58;13.08;;;;;;;7.45;42.16;98516.07;1685230;83;22055;-73
2022/03/29 04:58:47;;;;;;;19.20;10.13;;;;;;;7.51;41.91;98520.25;1740315;82;21434;-72
2022/03/29 05:01:14;;;;;;;26.20;9.05;;;;;;;7.57;41.98;98512.91;1740013;81;20967;-68
2022/03/29 05:03:51;;;;;;;20.62;9.65;;;;;;;7.63;42.04;98514.92;1738604;81;21030;-69
2022/03/29 05:06:11;;;;;;;24.72;9.55;;;;;;;7.72;41.93;98512.20;1739924;81;20935;-69
2022/03/29 05:08:37;;;;;;;23.05;8.75;;;;;;;7.78;42.01;98507.61;1742813;81;21118;-69
2022/03/29 05:11:06;;;;;;;17.40;8.90;;;;;;;7.86;41.92;98505.44;1743789;81;21478;-68
2022/03/29 05:13:33;;;;;;;19.52;9.13;;;;;;;7.97;41.99;98525.61;1746177;81;20942;-69
2022/03/29 05:16:01;;;;;;;16.73;8.70;;;;;;;8.05;41.90;98515.23;1754769;81;20977;-71
2022/03/29 05:18:29;;;;;;;25.62;9.98;;;;;;;8.16;41.90;98520.01;1728597;81;20986;-68
2022/03/29 05:20:57;;;;;;;15.85;8.73;;;;;;;8.27;41.83;98510.34;1720591;82;20990;-70
2022/03/29 05:23:23;;;;;;;21.80;9.15;;;;;;;8.41;41.87;98511.53;1721128;82;20991;-73
2022/03/29 05:25:50;;;;;;;36.38;9.25;;;;;;;8.56;41.62;98517.84;1714722;82;20967;-73
2022/03/29 05:28:17;;;;;;;18.02;9.30;;;;;;;8.73;41.29;98522.98;1725928;82;21028;-68
2022/03/29 05:30:46;;;;;;;17.57;9.05;;;;;;;8.83;41.29;98511.11;1721028;82;21014;-68
2022/03/29 05:33:16;;;;;;;17.15;8.48;;;;;;;8.90;41.20;98516.08;1717413;82;21313;-70
2022/03/29 05:35:45;;;;;;;22.60;9.98;;;;;;;8.99;41.03;98507.25;1743832;81;21104;-70
2022/03/29 05:38:11;;;;;;;26.55;8.80;;;;;;;9.04;41.01;98511.17;1750350;81;21028;-70
2022/03/29 05:40:39;;;;;;;21.15;8.63;;;;;;;9.07;41.15;98509.71;1748769;81;20975;-71
2022/03/29 05:43:13;;;;;;;25.00;9.85;;;;;;;9.09;41.04;98504.14;1743911;81;20955;-70
2022/03/29 05:45:40;;;;;;;19.92;8.70;;;;;;;9.12;41.29;98506.22;1707726;83;21832;-68
2022/03/29 05:50:55;;;;;;;23.87;9.65;;;;;;;9.36;41.36;98502.02;1748765;81;20975;-73
2022/03/29 05:53:23;;;;;;;21.55;9.58;;;;;;;9.53;41.32;98504.64;1705665;83;20968;-69
2022/03/29 05:55:51;;;;;;;19.95;9.25;;;;;;;9.70;41.09;98500.96;1709156;83;21440;-70
2022/03/29 05:58:17;;;;;;;20.80;9.88;;;;;;;9.85;40.85;98502.48;1684362;83;21142;-67
2022/03/29 06:00:44;;;;;;;24.15;9.90;;;;;;;10.00;40.59;98500.27;1742416;81;21236;-69
2022/03/29 06:03:11;;;;;;;18.07;9.05;;;;;;;10.13;40.57;98510.14;1712670;83;20856;-69
2022/03/29 06:05:42;;;;;;;24.45;9.90;;;;;;;10.23;40.45;98498.78;1706846;83;20944;-68
2022/03/29 06:08:22;;;;;;;;;;;;;;;;;;;;;
2022/03/29 06:10:41;;;;;;;18.43;9.70;;;;;;;10.47;40.33;98500.19;1740517;81;21095;-71
2022/03/29 06:13:09;;;;;;;19.87;9.15;;;;;;;10.57;40.26;98508.55;1740964;82;21423;-71
2022/03/29 06:15:37;;;;;;;19.37;9.03;;;;;;;10.67;40.38;98504.56;1741196;82;20986;-73
2022/03/29 06:18:06;;;;;;;21.10;9.30;;;;;;;10.80;40.36;98504.23;1741887;81;21557;-69
2022/03/29 06:20:34;;;;;;;21.85;9.80;;;;;;;10.96;40.42;98498.06;1733679;81;21493;-65
2022/03/29 06:23:01;;;;;;;20.85;10.38;;;;;;;11.13;39.81;98484.87;1713264;82;21086;-64
2022/03/29 06:25:28;;;;;;;18.40;10.23;;;;;;;11.27;39.75;98486.46;1713194;83;21498;-68
2022/03/29 06:27:56;;;;;;;16.95;9.08;;;;;;;11.38;39.78;98496.63;1714848;83;21050;-68
2022/03/29 06:30:25;;;;;;;24.57;9.53;;;;;;;11.47;39.45;98485.51;1719802;82;21021;-74
2022/03/29 06:32:52;;;;;;;22.73;9.43;;;;;;;11.52;39.59;98484.70;1746581;81;21009;-68
2022/03/29 06:35:26;;;;;;;29.12;9.58;;;;;;;11.61;39.74;98490.60;1697496;83;21207;-68
2022/03/29 06:37:56;;;;;;;17.65;9.70;;;;;;;11.66;39.46;98487.03;1721136;82;21564;-69
2022/03/29 06:40:24;;;;;;;22.77;9.80;;;;;;;11.67;39.25;98480.97;1722820;82;20966;-70
2022/03/29 06:42:55;;;;;;;25.80;9.68;;;;;;;11.67;41.98;98473.52;1715584;82;21512;-69
2022/03/29 06:45:23;;;;;;;20.08;10.20;;;;;;;11.76;39.89;98472.00;1718442;82;21164;-74
2022/03/29 06:47:51;;;;;;;25.12;11.00;;;;;;;11.92;39.67;98464.64;1724468;82;21438;-74
2022/03/29 06:50:18;;;;;;;19.12;9.58;;;;;;;12.13;39.22;98464.42;1721143;82;21196;-70
2022/03/29 06:52:49;;;;;;;24.55;10.25;;;;;;;12.39;38.95;98455.66;1717020;82;21003;-71
2022/03/29 06:55:18;;;;;;;25.12;9.90;;;;;;;12.61;38.51;98462.50;1721184;82;20994;-69
2022/03/29 06:57:48;;;;;;;19.23;9.18;;;;;;;12.74;38.59;98476.37;1720632;82;21501;-68
2022/03/29 07:00:15;;;;;;;28.62;10.00;;;;;;;12.83;38.52;98465.98;1687787;84;21985;-70
2022/03/29 07:02:45;;;;;;;21.62;9.68;;;;;;;12.95;38.62;98465.88;1665445;83;20947;-66
2022/03/29 07:05:14;;;;;;;22.70;10.78;;;;;;;13.10;38.40;98462.88;1710843;83;21004;-68
2022/03/29 07:07:42;;;;;;;21.57;9.58;;;;;;;13.23;38.27;98464.40;1713471;83;21058;-68
2022/03/29 07:13:02;;;;;;;28.80;10.50;;;;;;;13.43;38.39;98459.70;1711528;83;21166;-68
2022/03/29 07:15:32;;;;;;;20.65;10.32;;;;;;;13.60;38.16;98459.28;1707809;83;21082;-66
2022/03/29 07:18:02;;;;;;;19.20;10.23;;;;;;;13.70;38.05;98447.67;1711980;83;21518;-69
2022/03/29 07:20:30;;;;;;;20.12;10.10;;;;;;;13.73;38.02;98446.95;1711607;83;20994;-68
2022/03/29 07:23:01;;;;;;;26.97;10.50;;;;;;;13.77;38.39;98443.69;1710715;83;21061;-70
2022/03/29 07:25:31;;;;;;;19.55;9.83;;;;;;;13.86;37.93;98446.99;1678596;83;21414;-68
2022/03/29 07:27:57;;;;;;;22.40;11.40;;;;;;;13.92;38.03;98449.45;1714109;83;21502;-70
2022/03/29 07:30:25;;;;;;;20.00;10.78;;;;;;;13.99;37.88;98446.26;1714013;83;20962;-69
2022/03/29 07:32:54;;;;;;;19.27;10.18;;;;;;;14.03;38.15;98446.33;1713119;83;21589;-68
2022/03/29 07:35:24;;;;;;;27.62;10.48;;;;;;;14.06;38.14;98437.32;1711695;83;21139;-70
2022/03/29 07:37:52;;;;;;;27.02;10.78;;;;;;;14.09;37.96;98446.25;1710631;83;21068;-70
2022/03/29 07:40:24;;;;;;;27.05;11.38;;;;;;;14.09;38.17;98436.01;1688993;84;20943;-72
2022/03/29 07:42:51;;;;;;;22.00;11.22;;;;;;;14.16;38.07;98437.52;1709044;83;21047;-68
2022/03/29 07:45:20;;;;;;;28.00;11.63;;;;;;;14.31;38.01;98428.92;1678274;84;21010;-67
2022/03/29 07:47:51;;;;;;;21.12;10.13;;;;;;;14.34;37.77;98444.75;1724450;81;21009;-67
2022/03/29 07:50:18;;;;;;;26.57;11.35;;;;;;;14.32;37.54;98431.90;1756257;81;21209;-69
2022/03/29 07:52:46;;;;;;;23.22;10.85;;;;;;;14.36;37.79;98434.14;1743794;82;20939;-68
2022/03/29 07:55:13;;;;;;;23.42;11.40;;;;;;;14.48;37.46;98422.91;1751998;81;20994;-68
2022/03/29 07:57:43;;;;;;;21.33;10.53;;;;;;;14.62;37.58;98421.56;1717620;82;20915;-72
2022/03/29 08:03:12;;;;;;;22.50;10.05;;;;;;;15.44;37.06;98413.88;1754183;81;21287;-70
2022/03/29 08:05:43;;;;;;;28.17;9.08;;;;;;;15.72;36.66;98410.09;1726785;81;21600;-70
2022/03/29 08:08:13;;;;;;;18.48;9.63;;;;;;;15.87;36.04;98393.07;1717612;81;21019;-71
2022/03/29 08:10:42;;;;;;;16.67;8.95;;;;;;;15.97;35.82;98403.46;1755292;81;21434;-72
2022/03/29 08:13:11;;;;;;;25.45;9.00;;;;;;;16.15;35.97;98398.91;1739833;81;20859;-74
2022/03/29 08:15:41;;;;;;;22.85;9.00;;;;;;;16.58;35.43;98394.33;1741973;82;21106;-72
2022/03/29 08:18:12;;;;;;;17.60;8.55;;;;;;;16.87;35.19;98391.20;1706195;82;21004;-78
2022/03/29 08:20:41;;;;;;;21.57;8.65;;;;;;;16.93;34.54;98395.20;1728303;81;20914;-73
2022/03/29 08:23:09;;;;;;;19.35;8.58;;;;;;;16.88;34.95;98386.65;1728451;81;21025;-74
2022/03/29 08:25:39;;;;;;;16.57;7.72;;;;;;;16.82;35.30;98384.83;1715347;82;21010;-73
2022/03/29 08:28:06;;;;;;;16.75;7.58;;;;;;;16.78;35.01;98373.52;1749313;81;21030;-74
2022/03/29 08:30:34;;;;;;;17.12;7.67;;;;;;;16.69;35.51;98377.23;1755967;81;20998;-73
2022/03/29 08:33:02;;;;;;;17.10;7.08;;;;;;;16.67;35.68;98379.00;1718034;81;20994;-74
2022/03/29 08:35:30;;;;;;;15.03;7.45;;;;;;;16.83;35.19;98372.56;1727597;81;20915;-73
2022/03/29 08:37:57;;;;;;;12.23;7.15;;;;;;;17.05;35.05;98359.64;1725149;81;21525;-72
2022/03/29 08:40:28;;;;;;;17.87;6.80;;;;;;;17.16;35.14;98368.02;1723353;82;21083;-72
2022/03/29 08:42:58;;;;;;;13.58;7.42;;;;;;;17.15;34.86;98361.67;1720450;82;21508;-71
2022/03/29 08:45:29;;;;;;;11.73;6.40;;;;;;;17.14;34.97;98361.47;1714427;82;21046;-71
2022/03/29 08:47:58;;;;;;;14.38;6.97;;;;;;;17.13;35.06;98339.67;1732708;81;21045;-77
2022/03/29 08:50:29;;;;;;;17.90;7.25;;;;;;;17.06;35.43;98352.91;1724160;81;21048;-75
2022/03/29 08:52:59;;;;;;;16.52;6.28;;;;;;;16.96;35.76;98352.84;1721846;82;21131;-74
2022/03/29 08:55:26;;;;;;;19.35;7.58;;;;;;;16.83;36.32;98350.39;1719458;81;21564;-75
2022/03/29 08:57:55;;;;;;;15.90;7.20;;;;;;;16.79;36.33;98348.77;1719481;81;20962;-76
2022/03/29 09:00:23;;;;;;;16.45;6.55;;;;;;;16.80;36.40;98340.66;1698010;83;20959;-74
2022/03/29 09:02:50;;;;;;;17.67;7.08;;;;;;;16.90;36.59;98345.48;1652321;85;20967;-75
2022/03/29 09:05:29;;;;;;;15.60;6.70;;;;;;;17.04;36.23;98337.25;1740253;82;21138;-73
2022/03/29 09:08:03;;;;;;;15.10;7.53;;;;;;;17.12;35.88;98331.95;1741329;81;21498;-74
2022/03/29 09:10:49;;;;;;;19.90;7.60;;;;;;;17.15;35.96;98331.17;1736926;81;20888;-74
2022/03/29 09:13:27;;;;;;;15.80;7.70;;;;;;;17.19;36.00;98330.40;1736335;81;21017;-76
2022/03/29 09:16:02;;;;;;;13.72;7.67;;;;;;;17.38;35.88;98323.92;1707180;83;20951;-77
2022/03/29 09:18:31;;;;;;;18.05;7.17;;;;;;;17.84;35.33;98316.96;1682624;83;22032;-78
2022/03/29 09:21:18;;;;;;;15.35;6.53;;;;;;;18.31;34.70;98308.85;1681097;84;21070;-76
2022/03/29 09:24:09;;;;;;;16.55;6.80;;;;;;;18.69;34.52;98300.30;1681935;84;21094;-74
2022/03/29 09:26:41;;;;;;;23.77;6.90;;;;;;;19.18;33.01;98299.34;1684940;84;21046;-76
2022/03/29 09:29:15;;;;;;;12.50;6.78;;;;;;;19.39;32.56;98298.47;1747439;81;21469;-75
2022/03/29 09:31:44;;;;;;;10.30;6.22;;;;;;;19.51;32.36;98289.70;1727131;82;21166;-80
2022/03/29 09:34:17;;;;;;;85.53;48.80;;;;;;;19.61;31.75;98277.72;1738805;82;20958;-79
2022/03/29 09:36:52;;;;;;;16.70;9.00;;;;;;;19.74;31.82;98273.83;1755149;81;20994;-81
2022/03/29 09:39:40;;;;;;;25.57;15.75;;;;;;;19.95;31.56;98265.34;1757631;81;20958;-84
2022/03/29 09:42:12;;;;;;;12.55;8.78;;;;;;;20.21;31.25;98259.77;1749986;81;20923;-77
2022/03/29 09:44:44;;;;;;;20.75;11.53;;;;;;;20.59;30.95;98248.08;1749166;81;21070;-77
2022/03/29 09:47:13;;;;;;;16.27;8.00;;;;;;;20.98;29.75;98240.65;1751530;81;21553;-78
2022/03/29 09:50:08;;;;;;;20.90;11.60;;;;;;;21.27;28.89;98234.75;1749451;81;20927;-82
2022/03/29 09:52:37;;;;;;;32.50;18.50;;;;;;;21.35;28.37;98246.02;1750395;81;20934;-77
2022/03/29 09:55:09;;;;;;;20.52;10.75;;;;;;;21.19;28.37;98233.23;1712626;83;20987;-76
2022/03/29 09:57:53;;;;;;;17.87;9.05;;;;;;;20.99;28.56;98228.89;1707617;83;21695;-75
2022/03/29 10:00:37;;;;;;;20.65;9.05;;;;;;;21.08;29.40;98238.94;1737357;81;20892;-76
2022/03/29 10:03:11;;;;;;;17.02;9.20;;;;;;;21.12;27.72;98217.37;1744187;81;20951;-77
2022/03/29 10:05:39;;;;;;;16.32;8.38;;;;;;;20.93;28.08;98219.39;1741290;81;21435;-71
2022/03/29 10:11:02;;;;;;;18.00;8.08;;;;;;;21.14;27.26;98225.32;1743943;82;21542;-73
2022/03/29 10:13:30;;;;;;;21.30;8.70;;;;;;;21.26;26.90;98213.63;1742092;81;21392;-71
2022/03/29 10:16:00;;;;;;;25.23;9.40;;;;;;;21.25;26.75;98210.05;1739491;82;20916;-72
2022/03/29 10:18:27;;;;;;;16.55;8.68;;;;;;;21.25;26.72;98208.66;1740042;81;20959;-72
2022/03/29 10:21:05;;;;;;;;;;;;;;;;;;;;;
2022/03/29 10:23:24;;;;;;;16.57;8.45;;;;;;;20.66;27.02;98200.60;1738514;81;20896;-72
2022/03/29 10:25:52;;;;;;;24.20;8.40;;;;;;;20.26;27.58;98204.96;1742564;81;21485;-71
2022/03/29 10:28:22;;;;;;;15.83;8.53;;;;;;;20.21;27.93;98194.29;1725435;81;20935;-71
2022/03/29 10:30:51;;;;;;;13.30;8.08;;;;;;;20.20;27.73;98193.31;1717171;82;21023;-82
2022/03/29 10:33:30;;;;;;;13.90;8.13;;;;;;;20.23;27.59;98185.48;1738935;82;20895;-72
2022/03/29 10:36:12;;;;;;;23.00;8.68;;;;;;;20.50;27.94;98177.29;1707957;83;21127;-83
2022/03/29 10:38:55;;;;;;;15.60;8.95;;;;;;;20.83;27.08;98168.11;1708466;83;20947;-83
2022/03/29 10:41:34;;;;;;;41.10;14.47;;;;;;;20.77;27.12;98157.26;1647485;84;20978;-73
2022/03/29 10:44:11;;;;;;;13.72;7.12;;;;;;;20.49;27.16;98164.56;1743988;82;21431;-75
2022/03/29 10:46:50;;;;;;;18.02;8.25;;;;;;;19.99;27.49;98161.66;1743609;82;20930;-83
2022/03/29 10:49:31;;;;;;;14.10;7.75;;;;;;;19.70;28.40;98176.41;1743402;81;21248;-83
2022/03/29 10:52:09;;;;;;;15.63;7.70;;;;;;;19.54;28.52;98171.20;1733481;81;20879;-74
2022/03/29 10:54:42;;;;;;;14.55;8.33;;;;;;;19.35;28.93;98177.45;1734541;81;21560;-75
2022/03/29 10:57:28;;;;;;;16.25;8.53;;;;;;;19.35;29.07;98168.31;1733924;81;20938;-73
2022/03/29 11:00:21;;;;;;;15.63;8.08;;;;;;;19.28;28.72;98175.30;1746698;81;20935;-70
2022/03/29 11:03:20;;;;;;;56.42;10.95;;;;;;;19.00;29.25;98177.07;1743998;81;21129;-70
2022/03/29 11:06:08;;;;;;;108.22;12.40;;;;;;;18.62;29.63;98211.36;1753435;81;20926;-69
2022/03/29 11:08:44;;;;;;;120.37;14.87;;;;;;;18.07;36.30;98265.99;1748578;81;20978;-70
2022/03/29 11:11:56;;;;;;;;;;;;;;;;;;;;;
2022/03/29 11:14:35;;;;;;;83.17;13.25;;;;;;;15.64;49.70;98270.09;1720037;81;20956;-67
2022/03/29 11:17:22;;;;;;;52.93;13.35;;;;;;;14.61;53.41;98281.88;1750226;81;21250;-71
2022/03/29 11:19:51;;;;;;;67.45;15.20;;;;;;;14.04;56.07;98264.43;1750003;81;20994;-71
2022/03/29 11:22:39;;;;;;;34.53;15.85;;;;;;;13.70;57.61;98278.06;1752952;81;20902;-73
2022/03/29 11:25:14;;;;;;;38.20;16.77;;;;;;;13.45;58.48;98285.08;1746265;81;20855;-73
2022/03/29 11:27:43;;;;;;;37.70;17.95;;;;;;;13.20;59.63;98284.63;1724865;81;21560;-79
2022/03/29 11:30:12;;;;;;;33.88;18.37;;;;;;;13.02;60.84;98311.77;1743553;81;21033;-71
2022/03/29 11:32:47;;;;;;;30.75;16.10;;;;;;;12.79;61.95;98311.67;1752646;81;20907;-72
2022/03/29 11:35:20;;;;;;;28.20;14.50;;;;;;;12.68;62.45;98313.42;1750333;81;21018;-73
2022/03/29 11:37:53;;;;;;;23.40;12.05;;;;;;;12.60;61.93;98311.66;1724561;81;20947;-73
2022/03/29 11:40:21;;;;;;;16.60;9.78;;;;;;;12.56;61.36;98306.08;1749558;81;20950;-74
2022/03/29 11:42:53;;;;;;;18.17;9.18;;;;;;;12.52;60.77;98316.20;1750662;81;21128;-74
2022/03/29 11:45:27;;;;;;;14.25;8.33;;;;;;;12.45;61.98;98322.92;1712799;81;21600;-73
2022/03/29 11:48:02;;;;;;;16.95;9.95;;;;;;;12.39;61.03;98318.84;1721966;81;20946;-75
2022/03/29 11:50:56;;;;;;;15.75;9.28;;;;;;;12.37;60.21;98313.47;1744512;81;20907;-74
2022/03/29 11:53:32;;;;;;;17.92;9.50;;;;;;;12.39;60.33;98302.91;1750954;81;20996;-74
2022/03/29 11:56:09;;;;;;;12.43;8.23;;;;;;;12.46;59.99;98308.58;1740884;81;21125;-74